Список аэропортов
Фактическая погода:

15 августа, 23:20
Температура: +20°C (+19.9*)
Ветер: юго-западный 6 м/с
Давление: *762 мм
облачно
1110 м
Время (МСК)Темп. СВетерВлажностьДавлениеОблачностьОсадки
21:00+22ЮЗ, 5 м/с63%1016 гПаоблачно
22:00+21ЮЗ, 5 м/с66%1016 гПас прояснениями
23:00+20ЮЗ, 6 м/с72%1016 гПас прояснениями
16 августа
00:00+19ЮЗ, 6 м/с79%1016 гПас прояснениями
01:00+18ЮЗ, 6 м/с84%1016 гПас прояснениями
02:00+18ЮЗ, 5 м/с85%1015 гПаясно
03:00+17ЮЗ, 5 м/с86%1015 гПаоблачно
04:00+18ЮЗ, 5 м/с86%1015 гПаоблачно
05:00+18ЮЗ, 5 м/с82%1014 гПаоблачно
06:00+18Ю, 5 м/с83%1014 гПаоблачно
07:00+17Ю, 5 м/с87%1014 гПаоблачно
08:00+17Ю, 5 м/с88%1013 гПаоблачно
09:00+18ЮЗ, 6 м/с87%1013 гПаоблачно
10:00+18ЮЗ, 6 м/с84%1012 гПаоблачносл. дождь
11:00+18ЮЗ, 6 м/с86%1012 гПаоблачносл. дождь
12:00+18ЮЗ, 6 м/с90%1012 гПаоблачнодождь
13:00+18ЮЗ, 5 м/с94%1012 гПаоблачнодождь
14:00+18З, 3 м/с90%1013 гПаоблачнодождь
15:00+18З, 3 м/с85%1013 гПаоблачнодождь
16:00+18З, 2 м/с85%1013 гПаоблачнодождь
17:00+18З, 3 м/с80%1013 гПаоблачнодождь
18:00+18ЮЗ, 3 м/с78%1013 гПаоблачнодождь
19:00+18ЮЗ, 4 м/с76%1014 гПаоблачнодождь
20:00+18ЮЗ, 4 м/с79%1014 гПаоблачнодождь
21:00+17З, 3 м/с77%1014 гПаоблачно
22:00+16З, 3 м/с79%1014 гПаоблачно
23:00+15З, 2 м/с87%1015 гПамалооблачно
17 августа
00:00+15ЮЗ, 2 м/с90%1016 гПас прояснениями
01:00+15ЮЗ, 2 м/с90%1016 гПас прояснениями
02:00+14З, 3 м/с91%1016 гПамалооблачно
03:00+12ЮЗ, 2 м/с96%1016 гПаясно
04:00+12ЮЗ, 2 м/с97%1016 гПамалооблачно
05:00+11З, 2 м/с98%1016 гПамалооблачно
06:00+10З, 2 м/с98%1016 гПамалооблачно
07:00+10З, 2 м/с98%1017 гПамалооблачно
08:00+10З, 2 м/с99%1017 гПас прояснениями
09:00+10ЮЗ, 2 м/с99%1017 гПас прояснениями
10:00+12З, 2 м/с95%1018 гПамалооблачно
11:00+14З, 2 м/с88%1018 гПамалооблачно
12:00+16З, 2 м/с78%1018 гПас прояснениями
13:00+19З, 2 м/с62%1018 гПамалооблачно
14:00+19З, 3 м/с50%1018 гПаоблачно
15:00+19З, 5 м/с52%1019 гПаоблачно
16:00+20З, 4 м/с49%1019 гПас прояснениями
17:00+20З, 4 м/с46%1019 гПаоблачно
18:00+20З, 4 м/с46%1019 гПаоблачно
19:00+20З, 5 м/с46%1019 гПаоблачно
20:00+19З, 6 м/с52%1019 гПас прояснениями
21:00+18З, 5 м/с57%1019 гПас прояснениями